sensor_id;sensor_type;location;lat;lon;timestamp;temperature;humidity
42833;DHT22;64089;51.478;5.692;2023-09-12T00:01:33;20.00;99.90
42833;DHT22;64089;51.478;5.692;2023-09-12T00:03:59;20.00;99.90
42833;DHT22;64089;51.478;5.692;2023-09-12T00:06:24;20.00;99.90
42833;DHT22;64089;51.478;5.692;2023-09-12T00:08:51;20.00;99.90
42833;DHT22;64089;51.478;5.692;2023-09-12T00:11:17;20.00;99.90
42833;DHT22;64089;51.478;5.692;2023-09-12T00:13:44;19.90;99.90
42833;DHT22;64089;51.478;5.692;2023-09-12T00:16:10;19.90;99.90
42833;DHT22;64089;51.478;5.692;2023-09-12T00:18:37;19.70;99.90
42833;DHT22;64089;51.478;5.692;2023-09-12T00:21:02;19.70;99.90
42833;DHT22;64089;51.478;5.692;2023-09-12T00:23:28;19.60;99.90
42833;DHT22;64089;51.478;5.692;2023-09-12T00:25:54;19.60;99.90
42833;DHT22;64089;51.478;5.692;2023-09-12T00:28:20;19.60;99.90
42833;DHT22;64089;51.478;5.692;2023-09-12T00:30:46;19.60;99.90
42833;DHT22;64089;51.478;5.692;2023-09-12T00:33:12;19.60;99.90
42833;DHT22;64089;51.478;5.692;2023-09-12T00:35:37;19.50;99.90
42833;DHT22;64089;51.478;5.692;2023-09-12T00:38:03;19.50;99.90
42833;DHT22;64089;51.478;5.692;2023-09-12T00:40:29;19.40;99.90
42833;DHT22;64089;51.478;5.692;2023-09-12T00:42:55;19.40;99.90
42833;DHT22;64089;51.478;5.692;2023-09-12T00:45:21;19.40;99.90
42833;DHT22;64089;51.478;5.692;2023-09-12T00:47:48;19.40;99.90
42833;DHT22;64089;51.478;5.692;2023-09-12T00:50:14;19.30;99.90
42833;DHT22;64089;51.478;5.692;2023-09-12T00:52:42;19.30;99.90
42833;DHT22;64089;51.478;5.692;2023-09-12T00:55:08;19.20;99.90
42833;DHT22;64089;51.478;5.692;2023-09-12T00:57:34;19.10;99.90
42833;DHT22;64089;51.478;5.692;2023-09-12T01:00:02;19.00;99.90
42833;DHT22;64089;51.478;5.692;2023-09-12T01:02:37;19.00;99.90
42833;DHT22;64089;51.478;5.692;2023-09-12T01:05:03;19.00;99.90
42833;DHT22;64089;51.478;5.692;2023-09-12T01:07:30;18.90;99.90
42833;DHT22;64089;51.478;5.692;2023-09-12T01:09:55;18.90;99.90
42833;DHT22;64089;51.478;5.692;2023-09-12T01:12:21;18.90;99.90
42833;DHT22;64089;51.478;5.692;2023-09-12T01:14:47;18.80;99.90
42833;DHT22;64089;51.478;5.692;2023-09-12T01:17:12;18.60;99.90
42833;DHT22;64089;51.478;5.692;2023-09-12T01:19:38;18.60;99.90
42833;DHT22;64089;51.478;5.692;2023-09-12T01:22:27;18.60;99.90
42833;DHT22;64089;51.478;5.692;2023-09-12T01:27:41;18.70;99.90
42833;DHT22;64089;51.478;5.692;2023-09-12T01:30:10;18.80;99.90
42833;DHT22;64089;51.478;5.692;2023-09-12T01:32:37;18.80;99.90
42833;DHT22;64089;51.478;5.692;2023-09-12T01:35:04;18.70;99.90
42833;DHT22;64089;51.478;5.692;2023-09-12T01:37:30;18.70;99.90
42833;DHT22;64089;51.478;5.692;2023-09-12T01:39:56;18.70;99.90
42833;DHT22;64089;51.478;5.692;2023-09-12T01:42:22;18.70;99.90
42833;DHT22;64089;51.478;5.692;2023-09-12T01:44:55;18.70;99.90
42833;DHT22;64089;51.478;5.692;2023-09-12T01:47:22;18.80;99.90
42833;DHT22;64089;51.478;5.692;2023-09-12T01:49:51;18.80;99.90
42833;DHT22;64089;51.478;5.692;2023-09-12T01:52:17;18.80;99.90
42833;DHT22;64089;51.478;5.692;2023-09-12T01:54:44;18.80;99.90
42833;DHT22;64089;51.478;5.692;2023-09-12T01:57:10;18.70;99.90
42833;DHT22;64089;51.478;5.692;2023-09-12T01:59:36;18.60;99.90
42833;DHT22;64089;51.478;5.692;2023-09-12T02:02:02;18.70;99.90
42833;DHT22;64089;51.478;5.692;2023-09-12T02:04:28;18.70;99.90
42833;DHT22;64089;51.478;5.692;2023-09-12T02:06:53;18.70;99.90
42833;DHT22;64089;51.478;5.692;2023-09-12T02:09:19;18.70;99.90
42833;DHT22;64089;51.478;5.692;2023-09-12T02:11:45;18.70;99.90
42833;DHT22;64089;51.478;5.692;2023-09-12T02:14:10;18.70;99.90
42833;DHT22;64089;51.478;5.692;2023-09-12T02:16:37;18.60;99.90
42833;DHT22;64089;51.478;5.692;2023-09-12T02:19:04;18.60;99.90
42833;DHT22;64089;51.478;5.692;2023-09-12T02:21:31;18.60;99.90
42833;DHT22;64089;51.478;5.692;2023-09-12T02:23:56;18.60;99.90
42833;DHT22;64089;51.478;5.692;2023-09-12T02:26:22;18.60;99.90
42833;DHT22;64089;51.478;5.692;2023-09-12T02:28:48;18.50;99.90
42833;DHT22;64089;51.478;5.692;2023-09-12T02:31:13;18.50;99.90
42833;DHT22;64089;51.478;5.692;2023-09-12T02:33:39;18.50;99.90
42833;DHT22;64089;51.478;5.692;2023-09-12T02:36:05;18.50;99.90
42833;DHT22;64089;51.478;5.692;2023-09-12T02:38:31;18.50;99.90
42833;DHT22;64089;51.478;5.692;2023-09-12T02:40:58;18.50;99.90
42833;DHT22;64089;51.478;5.692;2023-09-12T02:43:23;18.40;99.90
42833;DHT22;64089;51.478;5.692;2023-09-12T02:45:49;18.30;99.90
42833;DHT22;64089;51.478;5.692;2023-09-12T02:48:14;18.30;99.90
42833;DHT22;64089;51.478;5.692;2023-09-12T02:50:40;18.30;99.90
42833;DHT22;64089;51.478;5.692;2023-09-12T02:53:06;18.30;99.90
42833;DHT22;64089;51.478;5.692;2023-09-12T02:55:32;18.40;99.90
42833;DHT22;64089;51.478;5.692;2023-09-12T02:57:58;18.40;99.90
42833;DHT22;64089;51.478;5.692;2023-09-12T03:00:24;18.30;99.90
42833;DHT22;64089;51.478;5.692;2023-09-12T03:02:50;18.10;99.90
42833;DHT22;64089;51.478;5.692;2023-09-12T03:05:15;17.90;99.90
42833;DHT22;64089;51.478;5.692;2023-09-12T03:07:41;17.90;99.90
42833;DHT22;64089;51.478;5.692;2023-09-12T03:10:07;17.90;99.90
42833;DHT22;64089;51.478;5.692;2023-09-12T03:12:33;17.90;99.90
42833;DHT22;64089;51.478;5.692;2023-09-12T03:14:58;17.90;99.90
42833;DHT22;64089;51.478;5.692;2023-09-12T03:17:24;17.90;99.90
42833;DHT22;64089;51.478;5.692;2023-09-12T03:19:49;17.90;99.90
42833;DHT22;64089;51.478;5.692;2023-09-12T03:22:15;17.90;99.90
42833;DHT22;64089;51.478;5.692;2023-09-12T03:24:40;17.90;99.90
42833;DHT22;64089;51.478;5.692;2023-09-12T03:27:06;17.80;99.90
42833;DHT22;64089;51.478;5.692;2023-09-12T03:29:33;17.70;99.90
42833;DHT22;64089;51.478;5.692;2023-09-12T03:31:58;17.50;99.90
42833;DHT22;64089;51.478;5.692;2023-09-12T03:34:24;17.50;99.90
42833;DHT22;64089;51.478;5.692;2023-09-12T03:36:50;17.60;99.90
42833;DHT22;64089;51.478;5.692;2023-09-12T03:39:15;17.70;99.90
42833;DHT22;64089;51.478;5.692;2023-09-12T03:41:41;17.70;99.90
42833;DHT22;64089;51.478;5.692;2023-09-12T03:44:07;17.90;99.90
42833;DHT22;64089;51.478;5.692;2023-09-12T03:46:33;17.90;99.90
42833;DHT22;64089;51.478;5.692;2023-09-12T03:48:58;17.80;99.90
42833;DHT22;64089;51.478;5.692;2023-09-12T03:51:24;17.80;99.90
42833;DHT22;64089;51.478;5.692;2023-09-12T03:53:49;17.90;99.90
42833;DHT22;64089;51.478;5.692;2023-09-12T03:56:16;17.90;99.90
42833;DHT22;64089;51.478;5.692;2023-09-12T03:58:41;17.90;99.90
42833;DHT22;64089;51.478;5.692;2023-09-12T04:01:07;17.90;99.90
42833;DHT22;64089;51.478;5.692;2023-09-12T04:03:33;18.00;99.90
42833;DHT22;64089;51.478;5.692;2023-09-12T04:05:58;18.10;99.90
42833;DHT22;64089;51.478;5.692;2023-09-12T04:08:24;18.10;99.90
42833;DHT22;64089;51.478;5.692;2023-09-12T04:10:50;18.20;99.90
42833;DHT22;64089;51.478;5.692;2023-09-12T04:13:15;18.10;99.90
42833;DHT22;64089;51.478;5.692;2023-09-12T04:15:41;18.10;99.90
42833;DHT22;64089;51.478;5.692;2023-09-12T04:18:07;18.10;99.90
42833;DHT22;64089;51.478;5.692;2023-09-12T04:20:33;18.10;99.90
42833;DHT22;64089;51.478;5.692;2023-09-12T04:23:01;18.20;99.90
42833;DHT22;64089;51.478;5.692;2023-09-12T04:25:28;18.20;99.90
42833;DHT22;64089;51.478;5.692;2023-09-12T04:27:53;18.20;99.90
42833;DHT22;64089;51.478;5.692;2023-09-12T04:30:19;18.20;99.90
42833;DHT22;64089;51.478;5.692;2023-09-12T04:32:44;18.10;99.90
42833;DHT22;64089;51.478;5.692;2023-09-12T04:35:10;18.20;99.90
42833;DHT22;64089;51.478;5.692;2023-09-12T04:37:36;18.20;99.90
42833;DHT22;64089;51.478;5.692;2023-09-12T04:40:03;18.20;99.90
42833;DHT22;64089;51.478;5.692;2023-09-12T04:42:30;18.20;99.90
42833;DHT22;64089;51.478;5.692;2023-09-12T04:44:56;18.30;99.90
42833;DHT22;64089;51.478;5.692;2023-09-12T04:47:22;18.30;99.90
42833;DHT22;64089;51.478;5.692;2023-09-12T04:49:47;18.40;99.90
42833;DHT22;64089;51.478;5.692;2023-09-12T04:52:13;18.40;99.90
42833;DHT22;64089;51.478;5.692;2023-09-12T04:54:38;18.50;99.90
42833;DHT22;64089;51.478;5.692;2023-09-12T04:57:04;18.50;99.90
42833;DHT22;64089;51.478;5.692;2023-09-12T04:59:30;18.60;99.90
42833;DHT22;64089;51.478;5.692;2023-09-12T05:01:55;18.70;99.90
42833;DHT22;64089;51.478;5.692;2023-09-12T05:04:21;18.70;99.90
42833;DHT22;64089;51.478;5.692;2023-09-12T05:06:46;18.70;99.90
42833;DHT22;64089;51.478;5.692;2023-09-12T05:09:13;18.70;99.90
42833;DHT22;64089;51.478;5.692;2023-09-12T05:11:38;18.70;99.90
42833;DHT22;64089;51.478;5.692;2023-09-12T05:14:04;18.70;99.90
42833;DHT22;64089;51.478;5.692;2023-09-12T05:16:30;18.70;99.90
42833;DHT22;64089;51.478;5.692;2023-09-12T05:18:55;18.70;99.90
42833;DHT22;64089;51.478;5.692;2023-09-12T05:21:21;18.70;99.90
42833;DHT22;64089;51.478;5.692;2023-09-12T05:23:47;18.70;99.90
42833;DHT22;64089;51.478;5.692;2023-09-12T05:26:13;18.80;99.90
42833;DHT22;64089;51.478;5.692;2023-09-12T05:28:38;18.70;99.90
42833;DHT22;64089;51.478;5.692;2023-09-12T05:31:04;18.80;99.90
42833;DHT22;64089;51.478;5.692;2023-09-12T05:33:30;18.80;99.90
42833;DHT22;64089;51.478;5.692;2023-09-12T05:35:55;18.80;99.90
42833;DHT22;64089;51.478;5.692;2023-09-12T05:38:21;18.80;99.90
42833;DHT22;64089;51.478;5.692;2023-09-12T05:40:47;18.80;99.90
42833;DHT22;64089;51.478;5.692;2023-09-12T05:43:15;18.80;99.90
42833;DHT22;64089;51.478;5.692;2023-09-12T05:45:41;18.90;99.90
42833;DHT22;64089;51.478;5.692;2023-09-12T05:48:07;18.90;99.90
42833;DHT22;64089;51.478;5.692;2023-09-12T05:50:32;18.90;99.90
42833;DHT22;64089;51.478;5.692;2023-09-12T05:52:58;18.90;99.90
42833;DHT22;64089;51.478;5.692;2023-09-12T05:55:24;18.90;99.90
42833;DHT22;64089;51.478;5.692;2023-09-12T05:57:50;18.80;99.90
42833;DHT22;64089;51.478;5.692;2023-09-12T06:00:18;18.80;99.90
42833;DHT22;64089;51.478;5.692;2023-09-12T06:02:45;18.90;99.90
42833;DHT22;64089;51.478;5.692;2023-09-12T06:05:11;18.90;99.90
42833;DHT22;64089;51.478;5.692;2023-09-12T06:07:36;18.90;99.90
42833;DHT22;64089;51.478;5.692;2023-09-12T06:10:04;18.90;99.90
42833;DHT22;64089;51.478;5.692;2023-09-12T06:12:30;18.80;99.90
42833;DHT22;64089;51.478;5.692;2023-09-12T06:14:58;18.80;99.90
42833;DHT22;64089;51.478;5.692;2023-09-12T06:17:24;18.80;99.90
42833;DHT22;64089;51.478;5.692;2023-09-12T06:19:49;18.80;99.90
42833;DHT22;64089;51.478;5.692;2023-09-12T06:22:15;18.80;99.90
42833;DHT22;64089;51.478;5.692;2023-09-12T06:24:43;18.80;99.90
42833;DHT22;64089;51.478;5.692;2023-09-12T06:27:08;18.90;99.90
42833;DHT22;64089;51.478;5.692;2023-09-12T06:29:34;18.80;99.90
42833;DHT22;64089;51.478;5.692;2023-09-12T06:31:59;18.90;99.90
42833;DHT22;64089;51.478;5.692;2023-09-12T06:34:25;18.80;99.90
42833;DHT22;64089;51.478;5.692;2023-09-12T06:36:53;18.90;99.90
42833;DHT22;64089;51.478;5.692;2023-09-12T06:39:18;18.80;99.90
42833;DHT22;64089;51.478;5.692;2023-09-12T06:41:44;18.80;99.90
42833;DHT22;64089;51.478;5.692;2023-09-12T06:44:10;18.70;99.90
42833;DHT22;64089;51.478;5.692;2023-09-12T06:46:35;18.70;99.90
42833;DHT22;64089;51.478;5.692;2023-09-12T06:49:02;18.70;99.90
42833;DHT22;64089;51.478;5.692;2023-09-12T06:51:28;18.80;99.90
42833;DHT22;64089;51.478;5.692;2023-09-12T06:53:54;18.80;99.90
42833;DHT22;64089;51.478;5.692;2023-09-12T06:56:20;18.90;99.90
42833;DHT22;64089;51.478;5.692;2023-09-12T06:58:47;19.00;99.90
42833;DHT22;64089;51.478;5.692;2023-09-12T07:01:13;19.10;99.90
42833;DHT22;64089;51.478;5.692;2023-09-12T07:03:39;19.10;99.90
42833;DHT22;64089;51.478;5.692;2023-09-12T07:06:05;19.20;99.90
42833;DHT22;64089;51.478;5.692;2023-09-12T07:08:31;19.20;99.90
42833;DHT22;64089;51.478;5.692;2023-09-12T07:10:57;19.30;99.90
42833;DHT22;64089;51.478;5.692;2023-09-12T07:13:25;19.40;99.90
42833;DHT22;64089;51.478;5.692;2023-09-12T07:15:51;19.40;99.90
42833;DHT22;64089;51.478;5.692;2023-09-12T07:18:17;19.50;99.90
42833;DHT22;64089;51.478;5.692;2023-09-12T07:20:43;19.50;99.90
42833;DHT22;64089;51.478;5.692;2023-09-12T07:23:09;19.60;99.90
42833;DHT22;64089;51.478;5.692;2023-09-12T07:25:41;19.70;99.90
42833;DHT22;64089;51.478;5.692;2023-09-12T07:28:07;19.80;99.90
42833;DHT22;64089;51.478;5.692;2023-09-12T07:30:33;19.80;99.90
42833;DHT22;64089;51.478;5.692;2023-09-12T07:32:59;19.80;99.90
42833;DHT22;64089;51.478;5.692;2023-09-12T07:35:25;19.90;99.90
42833;DHT22;64089;51.478;5.692;2023-09-12T07:37:50;19.90;99.90
42833;DHT22;64089;51.478;5.692;2023-09-12T07:40:16;20.00;99.90
42833;DHT22;64089;51.478;5.692;2023-09-12T07:42:42;20.10;99.90
42833;DHT22;64089;51.478;5.692;2023-09-12T07:45:08;20.10;99.90
42833;DHT22;64089;51.478;5.692;2023-09-12T07:47:34;20.10;99.90
42833;DHT22;64089;51.478;5.692;2023-09-12T07:49:59;20.10;99.90
42833;DHT22;64089;51.478;5.692;2023-09-12T07:52:29;20.10;99.90
42833;DHT22;64089;51.478;5.692;2023-09-12T07:55:02;20.10;99.90
42833;DHT22;64089;51.478;5.692;2023-09-12T07:57:28;20.10;99.90
42833;DHT22;64089;51.478;5.692;2023-09-12T07:59:55;20.10;99.90
42833;DHT22;64089;51.478;5.692;2023-09-12T08:02:21;20.00;99.90
42833;DHT22;64089;51.478;5.692;2023-09-12T08:04:46;20.10;99.90
42833;DHT22;64089;51.478;5.692;2023-09-12T08:07:12;20.20;99.90
42833;DHT22;64089;51.478;5.692;2023-09-12T08:09:55;20.20;99.90
42833;DHT22;64089;51.478;5.692;2023-09-12T08:12:22;20.30;99.90
42833;DHT22;64089;51.478;5.692;2023-09-12T08:14:48;20.40;99.90
42833;DHT22;64089;51.478;5.692;2023-09-12T08:17:14;20.30;99.90
42833;DHT22;64089;51.478;5.692;2023-09-12T08:19:40;20.30;99.90
42833;DHT22;64089;51.478;5.692;2023-09-12T08:22:07;20.40;99.90
42833;DHT22;64089;51.478;5.692;2023-09-12T08:24:34;20.50;99.90
42833;DHT22;64089;51.478;5.692;2023-09-12T08:27:00;20.50;99.90
42833;DHT22;64089;51.478;5.692;2023-09-12T08:29:28;20.50;99.90
42833;DHT22;64089;51.478;5.692;2023-09-12T08:31:53;20.50;99.90
42833;DHT22;64089;51.478;5.692;2023-09-12T08:34:20;20.50;99.90
42833;DHT22;64089;51.478;5.692;2023-09-12T08:36:46;20.70;99.90
42833;DHT22;64089;51.478;5.692;2023-09-12T08:39:14;20.70;99.90
42833;DHT22;64089;51.478;5.692;2023-09-12T08:41:40;20.80;99.90
42833;DHT22;64089;51.478;5.692;2023-09-12T08:44:06;20.90;99.90
42833;DHT22;64089;51.478;5.692;2023-09-12T08:46:32;20.90;99.90
42833;DHT22;64089;51.478;5.692;2023-09-12T08:48:58;21.00;99.90
42833;DHT22;64089;51.478;5.692;2023-09-12T08:51:24;21.20;99.90
42833;DHT22;64089;51.478;5.692;2023-09-12T08:53:51;21.30;99.90
42833;DHT22;64089;51.478;5.692;2023-09-12T08:56:17;21.30;99.90
42833;DHT22;64089;51.478;5.692;2023-09-12T08:58:44;21.40;99.90
42833;DHT22;64089;51.478;5.692;2023-09-12T09:01:13;21.40;99.90
42833;DHT22;64089;51.478;5.692;2023-09-12T09:03:41;21.50;99.90
42833;DHT22;64089;51.478;5.692;2023-09-12T09:06:09;21.50;99.90
42833;DHT22;64089;51.478;5.692;2023-09-12T09:08:36;21.60;99.90
42833;DHT22;64089;51.478;5.692;2023-09-12T09:11:02;21.60;99.90
42833;DHT22;64089;51.478;5.692;2023-09-12T09:13:29;21.70;99.90
42833;DHT22;64089;51.478;5.692;2023-09-12T09:16:12;21.80;99.90
42833;DHT22;64089;51.478;5.692;2023-09-12T09:18:58;21.80;99.90
42833;DHT22;64089;51.478;5.692;2023-09-12T09:21:28;22.00;99.90
42833;DHT22;64089;51.478;5.692;2023-09-12T09:23:58;22.00;99.90
42833;DHT22;64089;51.478;5.692;2023-09-12T09:26:24;22.10;99.90
42833;DHT22;64089;51.478;5.692;2023-09-12T09:29:08;22.20;99.90
42833;DHT22;64089;51.478;5.692;2023-09-12T09:31:34;22.30;99.90
42833;DHT22;64089;51.478;5.692;2023-09-12T09:34:00;22.30;99.90
42833;DHT22;64089;51.478;5.692;2023-09-12T09:36:27;22.40;99.90
42833;DHT22;64089;51.478;5.692;2023-09-12T09:38:53;22.40;99.90
42833;DHT22;64089;51.478;5.692;2023-09-12T09:41:22;22.50;99.90
42833;DHT22;64089;51.478;5.692;2023-09-12T09:43:51;22.60;99.90
42833;DHT22;64089;51.478;5.692;2023-09-12T09:46:18;22.70;99.90
42833;DHT22;64089;51.478;5.692;2023-09-12T09:48:50;22.70;99.90
42833;DHT22;64089;51.478;5.692;2023-09-12T09:51:16;22.50;99.90
42833;DHT22;64089;51.478;5.692;2023-09-12T09:53:42;22.40;99.90
42833;DHT22;64089;51.478;5.692;2023-09-12T09:56:18;22.40;99.90
42833;DHT22;64089;51.478;5.692;2023-09-12T09:58:48;22.50;99.90
42833;DHT22;64089;51.478;5.692;2023-09-12T10:01:18;22.70;99.90
42833;DHT22;64089;51.478;5.692;2023-09-12T10:03:50;22.90;99.90
42833;DHT22;64089;51.478;5.692;2023-09-12T10:06:17;23.10;99.90
42833;DHT22;64089;51.478;5.692;2023-09-12T10:08:44;23.20;99.90
42833;DHT22;64089;51.478;5.692;2023-09-12T10:11:14;23.20;99.90
42833;DHT22;64089;51.478;5.692;2023-09-12T10:13:49;23.20;99.90
42833;DHT22;64089;51.478;5.692;2023-09-12T10:16:18;23.10;99.90
42833;DHT22;64089;51.478;5.692;2023-09-12T10:21:29;22.90;99.90
42833;DHT22;64089;51.478;5.692;2023-09-12T10:23:58;22.80;99.90
42833;DHT22;64089;51.478;5.692;2023-09-12T10:26:24;22.70;99.90
42833;DHT22;64089;51.478;5.692;2023-09-12T10:28:50;22.50;99.90
42833;DHT22;64089;51.478;5.692;2023-09-12T10:31:17;22.50;99.90
42833;DHT22;64089;51.478;5.692;2023-09-12T10:33:43;22.70;99.90
42833;DHT22;64089;51.478;5.692;2023-09-12T10:36:11;22.80;99.90
42833;DHT22;64089;51.478;5.692;2023-09-12T10:38:42;22.80;99.90
42833;DHT22;64089;51.478;5.692;2023-09-12T10:41:13;22.80;99.90
42833;DHT22;64089;51.478;5.692;2023-09-12T10:43:41;22.80;99.90
42833;DHT22;64089;51.478;5.692;2023-09-12T10:46:08;22.90;99.90
42833;DHT22;64089;51.478;5.692;2023-09-12T10:48:35;23.00;99.90
42833;DHT22;64089;51.478;5.692;2023-09-12T10:51:01;23.10;99.90
42833;DHT22;64089;51.478;5.692;2023-09-12T10:53:30;23.20;99.90
42833;DHT22;64089;51.478;5.692;2023-09-12T10:56:00;23.20;99.90
42833;DHT22;64089;51.478;5.692;2023-09-12T10:58:26;23.20;99.90
42833;DHT22;64089;51.478;5.692;2023-09-12T11:01:24;23.30;99.90
42833;DHT22;64089;51.478;5.692;2023-09-12T11:03:53;23.50;99.90
42833;DHT22;64089;51.478;5.692;2023-09-12T11:06:29;23.40;99.90
42833;DHT22;64089;51.478;5.692;2023-09-12T11:11:48;23.60;99.90
42833;DHT22;64089;51.478;5.692;2023-09-12T11:14:15;23.80;99.90
42833;DHT22;64089;51.478;5.692;2023-09-12T11:16:42;23.80;99.90
42833;DHT22;64089;51.478;5.692;2023-09-12T11:19:19;23.70;99.90
42833;DHT22;64089;51.478;5.692;2023-09-12T11:21:46;23.60;99.90
42833;DHT22;64089;51.478;5.692;2023-09-12T11:24:13;23.70;99.90
42833;DHT22;64089;51.478;5.692;2023-09-12T11:26:59;23.80;99.90
42833;DHT22;64089;51.478;5.692;2023-09-12T11:29:36;23.80;99.90
42833;DHT22;64089;51.478;5.692;2023-09-12T11:32:03;23.70;99.90
42833;DHT22;64089;51.478;5.692;2023-09-12T11:34:38;23.80;99.90
42833;DHT22;64089;51.478;5.692;2023-09-12T11:37:04;23.90;99.90
42833;DHT22;64089;51.478;5.692;2023-09-12T11:39:34;24.00;99.90
42833;DHT22;64089;51.478;5.692;2023-09-12T11:42:02;24.20;99.90
42833;DHT22;64089;51.478;5.692;2023-09-12T11:44:28;24.30;99.90
42833;DHT22;64089;51.478;5.692;2023-09-12T11:46:56;24.50;99.90
42833;DHT22;64089;51.478;5.692;2023-09-12T11:49:34;24.60;99.90
42833;DHT22;64089;51.478;5.692;2023-09-12T11:52:00;24.50;99.90
42833;DHT22;64089;51.478;5.692;2023-09-12T11:54:26;24.60;99.90
42833;DHT22;64089;51.478;5.692;2023-09-12T11:56:53;24.90;99.90
42833;DHT22;64089;51.478;5.692;2023-09-12T11:59:28;25.10;99.90
42833;DHT22;64089;51.478;5.692;2023-09-12T12:01:54;25.40;99.90
42833;DHT22;64089;51.478;5.692;2023-09-12T12:04:21;25.30;99.90
42833;DHT22;64089;51.478;5.692;2023-09-12T12:06:48;25.30;99.90
42833;DHT22;64089;51.478;5.692;2023-09-12T12:09:14;25.30;99.90
42833;DHT22;64089;51.478;5.692;2023-09-12T12:11:43;25.20;99.90
42833;DHT22;64089;51.478;5.692;2023-09-12T12:14:13;25.10;99.90
42833;DHT22;64089;51.478;5.692;2023-09-12T12:16:44;25.00;99.90
42833;DHT22;64089;51.478;5.692;2023-09-12T12:19:10;24.90;99.90
42833;DHT22;64089;51.478;5.692;2023-09-12T12:21:38;24.80;99.90
42833;DHT22;64089;51.478;5.692;2023-09-12T12:24:04;24.60;99.90
42833;DHT22;64089;51.478;5.692;2023-09-12T12:26:32;24.60;99.90
42833;DHT22;64089;51.478;5.692;2023-09-12T12:29:00;24.60;99.90
42833;DHT22;64089;51.478;5.692;2023-09-12T12:31:26;24.60;99.90
42833;DHT22;64089;51.478;5.692;2023-09-12T12:33:57;24.60;99.90
42833;DHT22;64089;51.478;5.692;2023-09-12T12:36:22;24.70;99.90
42833;DHT22;64089;51.478;5.692;2023-09-12T12:38:49;24.90;99.90
42833;DHT22;64089;51.478;5.692;2023-09-12T12:41:26;25.30;99.90
42833;DHT22;64089;51.478;5.692;2023-09-12T12:43:53;25.60;99.90
42833;DHT22;64089;51.478;5.692;2023-09-12T12:46:24;25.40;99.90
42833;DHT22;64089;51.478;5.692;2023-09-12T12:48:50;25.20;99.90
42833;DHT22;64089;51.478;5.692;2023-09-12T12:51:17;25.00;99.90
42833;DHT22;64089;51.478;5.692;2023-09-12T12:53:54;24.90;99.90
42833;DHT22;64089;51.478;5.692;2023-09-12T12:56:28;24.90;99.90
42833;DHT22;64089;51.478;5.692;2023-09-12T12:58:56;24.80;99.90
42833;DHT22;64089;51.478;5.692;2023-09-12T13:01:23;24.70;99.90
42833;DHT22;64089;51.478;5.692;2023-09-12T13:03:49;24.70;99.90
42833;DHT22;64089;51.478;5.692;2023-09-12T13:06:19;24.80;99.90
42833;DHT22;64089;51.478;5.692;2023-09-12T13:08:46;24.80;99.90
42833;DHT22;64089;51.478;5.692;2023-09-12T13:11:14;24.90;99.90
42833;DHT22;64089;51.478;5.692;2023-09-12T13:13:41;24.80;99.90
42833;DHT22;64089;51.478;5.692;2023-09-12T13:16:08;24.90;99.90
42833;DHT22;64089;51.478;5.692;2023-09-12T13:18:38;25.00;99.90
42833;DHT22;64089;51.478;5.692;2023-09-12T13:21:04;25.20;99.90
42833;DHT22;64089;51.478;5.692;2023-09-12T13:23:30;25.40;99.90
42833;DHT22;64089;51.478;5.692;2023-09-12T13:25:56;25.70;99.90
42833;DHT22;64089;51.478;5.692;2023-09-12T13:28:22;26.00;99.90
42833;DHT22;64089;51.478;5.692;2023-09-12T13:30:52;26.30;99.90
42833;DHT22;64089;51.478;5.692;2023-09-12T13:33:17;26.30;99.90
42833;DHT22;64089;51.478;5.692;2023-09-12T13:35:43;26.50;99.90
42833;DHT22;64089;51.478;5.692;2023-09-12T13:38:09;26.50;99.90
42833;DHT22;64089;51.478;5.692;2023-09-12T13:40:38;26.60;99.90
42833;DHT22;64089;51.478;5.692;2023-09-12T13:43:05;26.30;99.90
42833;DHT22;64089;51.478;5.692;2023-09-12T13:45:31;25.80;99.90
42833;DHT22;64089;51.478;5.692;2023-09-12T13:47:58;25.40;99.90
42833;DHT22;64089;51.478;5.692;2023-09-12T13:50:24;25.20;99.90
42833;DHT22;64089;51.478;5.692;2023-09-12T13:52:49;24.90;99.90
42833;DHT22;64089;51.478;5.692;2023-09-12T13:55:15;24.90;99.90
42833;DHT22;64089;51.478;5.692;2023-09-12T13:57:41;24.90;99.90
42833;DHT22;64089;51.478;5.692;2023-09-12T14:00:08;25.10;99.90
42833;DHT22;64089;51.478;5.692;2023-09-12T14:02:34;25.30;99.90
42833;DHT22;64089;51.478;5.692;2023-09-12T14:04:59;25.50;99.90
42833;DHT22;64089;51.478;5.692;2023-09-12T14:07:26;25.70;99.90
42833;DHT22;64089;51.478;5.692;2023-09-12T14:09:51;25.90;99.90
42833;DHT22;64089;51.478;5.692;2023-09-12T14:12:23;26.00;99.90
42833;DHT22;64089;51.478;5.692;2023-09-12T14:14:49;26.30;99.90
42833;DHT22;64089;51.478;5.692;2023-09-12T14:17:15;26.50;99.90
42833;DHT22;64089;51.478;5.692;2023-09-12T14:19:41;26.50;99.90
42833;DHT22;64089;51.478;5.692;2023-09-12T14:22:06;26.40;99.90
42833;DHT22;64089;51.478;5.692;2023-09-12T14:24:32;26.20;99.90
42833;DHT22;64089;51.478;5.692;2023-09-12T14:26:57;26.00;99.90
42833;DHT22;64089;51.478;5.692;2023-09-12T14:29:23;25.90;99.90
42833;DHT22;64089;51.478;5.692;2023-09-12T14:31:52;25.80;99.90
42833;DHT22;64089;51.478;5.692;2023-09-12T14:34:23;25.70;99.90
42833;DHT22;64089;51.478;5.692;2023-09-12T14:36:52;25.80;99.90
42833;DHT22;64089;51.478;5.692;2023-09-12T14:39:17;25.90;99.90
42833;DHT22;64089;51.478;5.692;2023-09-12T14:41:43;25.90;99.90
42833;DHT22;64089;51.478;5.692;2023-09-12T14:44:09;25.90;99.90
42833;DHT22;64089;51.478;5.692;2023-09-12T14:46:35;25.90;99.90
42833;DHT22;64089;51.478;5.692;2023-09-12T14:49:01;26.00;99.90
42833;DHT22;64089;51.478;5.692;2023-09-12T14:51:26;26.10;99.90
42833;DHT22;64089;51.478;5.692;2023-09-12T14:53:52;26.00;99.90
42833;DHT22;64089;51.478;5.692;2023-09-12T14:56:18;25.80;99.90
42833;DHT22;64089;51.478;5.692;2023-09-12T14:58:43;25.60;99.90
42833;DHT22;64089;51.478;5.692;2023-09-12T15:01:09;25.60;99.90
42833;DHT22;64089;51.478;5.692;2023-09-12T15:03:34;25.50;99.90
42833;DHT22;64089;51.478;5.692;2023-09-12T15:06:04;25.60;99.90
42833;DHT22;64089;51.478;5.692;2023-09-12T15:08:30;25.70;99.90
42833;DHT22;64089;51.478;5.692;2023-09-12T15:10:56;25.70;99.90
42833;DHT22;64089;51.478;5.692;2023-09-12T15:13:21;25.80;99.90
42833;DHT22;64089;51.478;5.692;2023-09-12T15:15:47;25.70;99.90
42833;DHT22;64089;51.478;5.692;2023-09-12T15:18:12;25.70;99.90
42833;DHT22;64089;51.478;5.692;2023-09-12T15:20:38;25.70;99.90
42833;DHT22;64089;51.478;5.692;2023-09-12T15:23:04;25.50;99.90
42833;DHT22;64089;51.478;5.692;2023-09-12T15:25:30;25.40;99.90
42833;DHT22;64089;51.478;5.692;2023-09-12T15:27:58;25.30;99.90
42833;DHT22;64089;51.478;5.692;2023-09-12T15:30:23;25.30;99.90
42833;DHT22;64089;51.478;5.692;2023-09-12T15:32:49;25.20;99.90
42833;DHT22;64089;51.478;5.692;2023-09-12T15:35:15;25.20;99.90
42833;DHT22;64089;51.478;5.692;2023-09-12T15:37:41;24.90;99.90